createdAt,value
2018-03-22T00:02:16.242Z,4.00
2018-03-22T00:04:43.533Z,3.20
2018-03-22T00:07:10.833Z,3.50
2018-03-22T00:09:38.143Z,3.73
2018-03-22T00:12:05.445Z,1.73
2018-03-22T00:14:32.841Z,3.10
2018-03-22T00:17:00.206Z,3.03
2018-03-22T00:19:27.501Z,5.33
2018-03-22T00:21:54.777Z,2.97
2018-03-22T00:24:22.561Z,1.77
2018-03-22T00:26:49.848Z,2.97
2018-03-22T00:29:17.564Z,3.80
2018-03-22T00:31:45.064Z,2.93
2018-03-22T00:34:12.729Z,3.57
2018-03-22T00:36:40.458Z,3.37
2018-03-22T00:39:07.735Z,3.73
2018-03-22T00:41:35.045Z,3.87
2018-03-22T00:44:16.308Z,3.10
2018-03-22T00:46:43.635Z,1.00
2018-03-22T00:49:11.302Z,6.03
2018-03-22T00:51:38.999Z,4.27
2018-03-22T00:54:06.318Z,1.63
2018-03-22T00:56:33.993Z,1.90
2018-03-22T00:59:01.285Z,3.77
2018-03-22T01:01:28.569Z,3.60
2018-03-22T01:04:01.099Z,1.87
2018-03-22T01:06:28.380Z,4.13
2018-03-22T01:08:55.680Z,3.63
2018-03-22T01:11:23.026Z,3.37
2018-03-22T01:13:50.699Z,6.43
2018-03-22T01:16:41.058Z,5.10
2018-03-22T01:19:08.340Z,5.70
2018-03-22T01:21:35.640Z,3.87
2018-03-22T01:24:02.956Z,3.90
2018-03-22T01:26:30.263Z,2.73
2018-03-22T01:28:57.570Z,6.47
2018-03-22T01:31:24.864Z,6.00
2018-03-22T01:33:52.249Z,8.13
2018-03-22T01:36:19.921Z,1.90
2018-03-22T01:38:59.914Z,5.83
2018-03-22T01:44:17.900Z,3.93
2018-03-22T01:47:01.893Z,1.93
2018-03-22T01:49:29.209Z,8.20
2018-03-22T01:51:56.902Z,6.40
2018-03-22T01:54:24.228Z,8.77
2018-03-22T01:56:56.948Z,7.23
2018-03-22T01:59:24.266Z,7.37
2018-03-22T02:01:51.607Z,7.53
2018-03-22T02:04:19.342Z,6.53
2018-03-22T02:06:46.756Z,4.23
2018-03-22T02:09:19.480Z,6.50
2018-03-22T02:11:46.821Z,7.67
2018-03-22T02:14:14.159Z,6.90
2018-03-22T02:16:41.515Z,8.67
2018-03-22T02:19:08.872Z,3.30
2018-03-22T02:21:36.223Z,4.77
2018-03-22T02:24:03.739Z,7.10
2018-03-22T02:26:31.450Z,5.77
2018-03-22T02:29:04.114Z,5.27
2018-03-22T02:31:31.429Z,3.13
2018-03-22T02:33:58.774Z,5.13
2018-03-22T02:36:26.135Z,5.43
2018-03-22T02:38:53.880Z,4.90
2018-03-22T02:41:21.243Z,8.40
2018-03-22T02:43:48.691Z,4.20
2018-03-22T02:46:16.451Z,8.27
2018-03-22T02:48:43.798Z,9.23
2018-03-22T02:51:11.218Z,8.00
2018-03-22T02:53:38.493Z,3.83
2018-03-22T02:56:05.870Z,9.30
2018-03-22T02:58:36.490Z,8.77
2018-03-22T03:01:03.830Z,7.33
2018-03-22T03:03:43.885Z,5.43
2018-03-22T03:06:11.193Z,7.00
2018-03-22T03:08:53.730Z,9.57
2018-03-22T03:11:24.997Z,8.77
2018-03-22T03:13:52.351Z,5.27
2018-03-22T03:16:19.727Z,6.93
2018-03-22T03:18:47.090Z,9.67
2018-03-22T03:21:14.460Z,4.70
2018-03-22T03:23:41.806Z,5.00
2018-03-22T03:26:09.159Z,9.83
2018-03-22T03:28:36.523Z,8.83
2018-03-22T03:31:04.281Z,9.53
2018-03-22T03:33:31.609Z,8.60
2018-03-22T03:36:13.528Z,4.60
2018-03-22T03:38:40.864Z,9.33
2018-03-22T03:41:08.281Z,9.13
2018-03-22T03:43:35.591Z,9.43
2018-03-22T03:46:02.941Z,11.60
2018-03-22T03:48:30.323Z,3.67
2018-03-22T03:50:58.090Z,10.33
2018-03-22T03:53:25.466Z,2.30
2018-03-22T03:55:52.807Z,8.23
2018-03-22T03:58:20.173Z,5.40
2018-03-22T04:00:47.540Z,6.93
2018-03-22T04:03:14.846Z,5.23
2018-03-22T04:05:42.233Z,10.33
2018-03-22T04:08:09.627Z,7.00
2018-03-22T04:10:36.982Z,7.17
2018-03-22T04:13:04.394Z,7.93
2018-03-22T04:15:31.723Z,10.73
2018-03-22T04:17:59.440Z,7.47
2018-03-22T04:20:26.789Z,8.67
2018-03-22T04:22:54.153Z,9.27
2018-03-22T04:25:21.558Z,10.27
2018-03-22T04:27:54.765Z,7.33
2018-03-22T04:30:22.111Z,5.57
2018-03-22T04:32:49.884Z,9.33
2018-03-22T04:35:17.217Z,5.97
2018-03-22T04:37:44.525Z,2.80
2018-03-22T04:40:11.878Z,7.73
2018-03-22T04:42:45.063Z,9.43
2018-03-22T04:45:12.966Z,7.17
2018-03-22T04:47:40.361Z,5.23
2018-03-22T04:50:08.774Z,6.90
2018-03-22T04:52:46.796Z,9.27
2018-03-22T04:55:14.156Z,4.80
2018-03-22T04:57:41.876Z,9.53
2018-03-22T05:00:12.789Z,5.97
2018-03-22T05:02:40.541Z,4.60
2018-03-22T05:05:08.287Z,7.87
2018-03-22T05:10:43.481Z,7.60
2018-03-22T05:13:10.861Z,4.13
2018-03-22T05:15:39.137Z,5.90
2018-03-22T05:18:09.757Z,4.73
2018-03-22T05:20:37.069Z,4.77
2018-03-22T05:23:04.494Z,3.37
2018-03-22T05:25:31.842Z,7.13
2018-03-22T05:27:59.163Z,4.07
2018-03-22T05:30:26.725Z,7.53
2018-03-22T05:32:54.111Z,5.80
2018-03-22T05:35:21.480Z,8.50
2018-03-22T05:37:48.851Z,5.57
2018-03-22T05:40:16.255Z,2.77
2018-03-22T05:42:44.537Z,6.57
2018-03-22T05:45:11.879Z,8.63
2018-03-22T05:47:43.759Z,4.27
2018-03-22T05:50:12.289Z,2.87
2018-03-22T05:52:39.669Z,7.13
2018-03-22T05:55:07.376Z,3.20
2018-03-22T05:57:34.696Z,3.47
2018-03-22T06:00:02.044Z,5.07
2018-03-22T06:02:29.452Z,6.50
2018-03-22T06:04:56.761Z,3.30
2018-03-22T06:07:24.096Z,5.50
2018-03-22T06:09:57.673Z,5.43
2018-03-22T06:12:26.002Z,3.77
2018-03-22T06:14:53.322Z,4.77
2018-03-22T06:17:21.023Z,3.77
2018-03-22T06:19:48.727Z,4.83
2018-03-22T06:25:25.499Z,4.23
2018-03-22T06:27:52.862Z,6.73
2018-03-22T06:30:20.168Z,5.73
2018-03-22T06:32:47.511Z,2.47
2018-03-22T06:35:18.426Z,1.90
2018-03-22T06:37:45.714Z,3.20
2018-03-22T06:40:15.032Z,3.90
2018-03-22T06:42:44.263Z,4.77
2018-03-22T06:45:11.534Z,1.40
2018-03-22T06:47:38.811Z,5.70
2018-03-22T06:53:02.244Z,3.17
2018-03-22T06:55:29.538Z,5.43
2018-03-22T06:57:57.242Z,5.30
2018-03-22T07:00:24.674Z,3.30
2018-03-22T07:02:51.948Z,6.37
2018-03-22T07:05:19.255Z,4.20
2018-03-22T07:07:47.658Z,3.33
2018-03-22T07:10:29.741Z,4.67
2018-03-22T07:12:57.484Z,2.87
2018-03-22T07:15:25.168Z,4.30
2018-03-22T07:17:52.844Z,5.20
2018-03-22T07:20:20.189Z,4.20
2018-03-22T07:22:47.880Z,2.63
2018-03-22T07:25:20.978Z,4.87
2018-03-22T07:27:53.096Z,3.97
2018-03-22T07:30:26.001Z,2.87
2018-03-22T07:32:53.304Z,3.77
2018-03-22T07:35:20.593Z,5.27
2018-03-22T07:37:48.322Z,3.40
2018-03-22T07:40:15.630Z,5.27
2018-03-22T07:42:53.894Z,3.83
2018-03-22T07:45:26.600Z,2.60
2018-03-22T07:47:56.305Z,4.97
2018-03-22T07:50:23.712Z,5.17
2018-03-22T07:52:55.759Z,2.90
2018-03-22T07:55:23.068Z,3.70
2018-03-22T07:57:52.362Z,1.80
2018-03-22T08:00:19.679Z,3.37
2018-03-22T08:02:46.968Z,1.53
2018-03-22T08:05:14.288Z,2.33
2018-03-22T08:07:41.628Z,5.57
2018-03-22T08:10:08.914Z,5.67
2018-03-22T08:12:36.219Z,5.87
2018-03-22T08:15:03.745Z,3.60
2018-03-22T08:17:31.040Z,3.50
2018-03-22T08:19:58.341Z,3.23
2018-03-22T08:22:26.155Z,1.57
2018-03-22T08:24:53.567Z,4.43
2018-03-22T08:27:20.839Z,2.20
2018-03-22T08:29:49.508Z,4.23
2018-03-22T08:32:20.686Z,2.13
2018-03-22T08:35:00.020Z,4.50
2018-03-22T08:37:49.031Z,2.87
2018-03-22T08:40:20.017Z,2.60
2018-03-22T08:42:47.774Z,3.60
2018-03-22T08:45:16.078Z,3.77
2018-03-22T08:47:44.414Z,4.03
2018-03-22T08:50:12.236Z,3.10
2018-03-22T08:52:39.824Z,2.03
2018-03-22T08:55:07.201Z,2.27
2018-03-22T08:57:34.523Z,3.47
2018-03-22T09:00:02.193Z,5.80
2018-03-22T09:02:44.190Z,2.17
2018-03-22T09:05:11.871Z,4.80
2018-03-22T09:07:39.511Z,3.90
2018-03-22T09:10:06.958Z,7.53
2018-03-22T09:12:34.632Z,3.97
2018-03-22T09:15:14.074Z,6.30
2018-03-22T09:17:42.009Z,2.63
2018-03-22T09:20:09.386Z,3.73
2018-03-22T09:22:40.470Z,6.13
2018-03-22T09:25:07.931Z,5.73
2018-03-22T09:27:39.058Z,5.23
2018-03-22T09:30:12.047Z,5.70
2018-03-22T09:32:39.852Z,3.47
2018-03-22T09:35:09.377Z,4.73
2018-03-22T09:37:37.186Z,3.60
2018-03-22T09:40:04.732Z,7.20
2018-03-22T09:42:32.077Z,5.33
2018-03-22T09:44:59.442Z,3.80
2018-03-22T09:47:26.883Z,4.23
2018-03-22T09:49:58.483Z,6.30
2018-03-22T09:52:26.112Z,3.13
2018-03-22T09:54:53.743Z,4.60
2018-03-22T09:57:21.700Z,7.00
2018-03-22T09:59:49.112Z,5.57
2018-03-22T10:02:19.770Z,7.33
2018-03-22T10:04:47.142Z,5.83
2018-03-22T10:07:14.832Z,4.80
2018-03-22T10:09:42.341Z,6.60
2018-03-22T10:12:15.986Z,6.87
2018-03-22T10:14:44.036Z,6.90
2018-03-22T10:17:11.376Z,4.37
2018-03-22T10:19:38.769Z,7.97
2018-03-22T10:22:06.118Z,3.97
2018-03-22T10:24:33.521Z,4.57
2018-03-22T10:27:06.362Z,4.73
2018-03-22T10:29:33.804Z,6.23
2018-03-22T10:32:01.176Z,7.13
2018-03-22T10:34:54.275Z,5.47
2018-03-22T10:37:22.086Z,5.97
2018-03-22T10:39:49.488Z,4.73
2018-03-22T10:42:17.489Z,2.57
2018-03-22T10:44:44.863Z,3.97
2018-03-22T10:47:12.200Z,2.30
2018-03-22T10:49:39.594Z,2.97
2018-03-22T10:52:07.001Z,2.80
2018-03-22T10:54:34.546Z,1.17
2018-03-22T10:57:02.287Z,2.57
2018-03-22T10:59:30.106Z,2.07
2018-03-22T11:02:00.271Z,1.43
2018-03-22T11:04:36.237Z,2.10
2018-03-22T11:07:03.608Z,1.37
2018-03-22T11:09:31.338Z,2.03
2018-03-22T11:11:58.764Z,1.00
2018-03-22T11:14:26.138Z,2.33
2018-03-22T11:16:53.485Z,1.83
2018-03-22T11:19:20.878Z,1.90
2018-03-22T11:21:48.381Z,2.03
2018-03-22T11:24:15.778Z,1.20
2018-03-22T11:26:43.183Z,0.90
2018-03-22T11:29:10.693Z,0.53
2018-03-22T11:31:38.527Z,1.57
2018-03-22T11:34:06.842Z,1.30
2018-03-22T11:36:34.363Z,1.23
2018-03-22T11:39:01.725Z,1.10
2018-03-22T11:41:29.062Z,1.23
2018-03-22T11:43:56.447Z,1.10
2018-03-22T11:46:23.778Z,1.20
2018-03-22T11:49:09.461Z,1.57
2018-03-22T11:51:36.894Z,0.40
2018-03-22T11:54:09.876Z,0.67
2018-03-22T11:56:37.613Z,0.90
2018-03-22T11:59:05.149Z,0.73
2018-03-22T12:01:32.678Z,0.70
2018-03-22T12:04:00.965Z,0.67
2018-03-22T12:06:28.744Z,0.90
2018-03-22T12:09:05.069Z,0.73
2018-03-22T12:11:32.848Z,0.47
2018-03-22T12:14:00.249Z,0.70
2018-03-22T12:16:27.627Z,0.97
2018-03-22T12:18:54.974Z,1.00
2018-03-22T12:21:22.336Z,0.93
2018-03-22T12:23:50.571Z,0.70
2018-03-22T12:26:17.934Z,0.83
2018-03-22T12:28:45.309Z,0.70
2018-03-22T12:31:12.668Z,0.80
2018-03-22T12:33:40.040Z,0.80
2018-03-22T12:36:07.914Z,0.80
2018-03-22T12:38:35.250Z,0.90
2018-03-22T12:41:02.695Z,0.90
2018-03-22T12:43:30.121Z,0.60
2018-03-22T12:45:57.497Z,0.97
2018-03-22T12:48:24.931Z,0.93
2018-03-22T12:50:52.290Z,1.63
2018-03-22T12:53:19.932Z,1.73
2018-03-22T12:55:47.400Z,0.93
2018-03-22T12:58:14.895Z,1.17
2018-03-22T13:00:42.295Z,0.90
2018-03-22T13:03:10.116Z,0.70
2018-03-22T13:05:42.431Z,1.07
2018-03-22T13:08:10.200Z,1.43
2018-03-22T13:10:37.607Z,1.20
2018-03-22T13:13:05.136Z,1.50
2018-03-22T13:15:38.511Z,1.40
2018-03-22T13:18:06.693Z,1.30
2018-03-22T13:20:34.496Z,0.97
2018-03-22T13:23:24.994Z,1.23
2018-03-22T13:25:52.684Z,1.73
2018-03-22T13:28:20.265Z,1.57
2018-03-22T13:30:48.047Z,0.90
2018-03-22T13:33:16.428Z,1.10
2018-03-22T13:35:44.306Z,1.10
2018-03-22T13:38:11.743Z,1.50
2018-03-22T13:40:39.599Z,1.00
2018-03-22T13:43:08.606Z,1.57
2018-03-22T13:45:35.980Z,1.47
2018-03-22T13:48:03.367Z,1.17
2018-03-22T13:50:32.767Z,1.20
2018-03-22T13:53:00.172Z,1.17
2018-03-22T13:55:28.138Z,1.00
2018-03-22T13:57:56.885Z,1.20
2018-03-22T14:00:24.272Z,1.43
2018-03-22T14:02:51.622Z,0.93
2018-03-22T14:05:36.334Z,1.30
2018-03-22T14:08:04.530Z,0.53
2018-03-22T14:10:32.272Z,0.80
2018-03-22T14:13:00.534Z,1.20
2018-03-22T14:15:27.844Z,1.40
2018-03-22T14:17:55.296Z,0.73
2018-03-22T14:20:23.644Z,1.37
2018-03-22T14:22:51.942Z,1.23
2018-03-22T14:25:19.691Z,0.97
2018-03-22T14:27:47.789Z,1.30
2018-03-22T14:30:15.151Z,0.73
2018-03-22T14:32:42.495Z,0.53
2018-03-22T14:35:13.297Z,0.90
2018-03-22T14:37:40.961Z,1.80
2018-03-22T14:40:08.357Z,0.53
2018-03-22T14:42:35.688Z,0.60
2018-03-22T14:45:03.122Z,1.07
2018-03-22T14:47:31.116Z,1.40
2018-03-22T14:49:58.542Z,1.20
2018-03-22T14:52:26.024Z,0.97
2018-03-22T14:54:53.358Z,1.80
2018-03-22T14:57:20.715Z,0.83
2018-03-22T14:59:48.087Z,0.70
2018-03-22T15:02:15.597Z,1.20
2018-03-22T15:04:43.371Z,0.70
2018-03-22T15:07:11.637Z,1.10
2018-03-22T15:09:42.183Z,0.97
2018-03-22T15:12:10.144Z,1.20
2018-03-22T15:14:37.869Z,1.00
2018-03-22T15:17:05.406Z,1.27
2018-03-22T15:19:32.769Z,1.40
2018-03-22T15:22:03.627Z,1.20
2018-03-22T15:24:31.036Z,1.30
2018-03-22T15:26:58.364Z,1.57
2018-03-22T15:29:25.729Z,0.90
2018-03-22T15:32:12.818Z,0.90
2018-03-22T15:34:40.317Z,1.30
2018-03-22T15:37:07.719Z,0.80
2018-03-22T15:39:37.184Z,1.23
2018-03-22T15:42:04.535Z,1.30
2018-03-22T15:44:33.256Z,1.30
2018-03-22T15:47:00.979Z,1.37
2018-03-22T15:49:28.754Z,1.30
2018-03-22T15:52:19.386Z,1.10
2018-03-22T15:54:46.764Z,1.40
2018-03-22T15:57:21.619Z,1.43
2018-03-22T15:59:48.999Z,1.20
2018-03-22T16:02:16.402Z,1.20
2018-03-22T16:04:43.960Z,1.90
2018-03-22T16:10:22.861Z,1.47
2018-03-22T16:13:04.550Z,1.60
2018-03-22T16:15:52.172Z,1.23
2018-03-22T16:18:19.550Z,1.20
2018-03-22T16:20:47.468Z,1.17
2018-03-22T16:23:15.936Z,1.37
2018-03-22T16:25:44.062Z,1.50
2018-03-22T16:28:15.644Z,1.67
2018-03-22T16:30:51.344Z,1.40
2018-03-22T16:33:19.317Z,1.60
2018-03-22T16:35:47.547Z,1.40
2018-03-22T16:38:14.924Z,1.37
2018-03-22T16:40:42.294Z,1.30
2018-03-22T16:43:15.554Z,1.47
2018-03-22T16:45:42.918Z,1.87
2018-03-22T16:48:10.311Z,2.00
2018-03-22T16:50:38.080Z,1.43
2018-03-22T16:53:08.787Z,1.30
2018-03-22T16:55:36.242Z,1.37
2018-03-22T16:58:03.670Z,1.20
2018-03-22T17:00:31.058Z,1.30
2018-03-22T17:02:58.455Z,1.17
2018-03-22T17:05:25.808Z,1.10
2018-03-22T17:07:54.069Z,1.60
2018-03-22T17:10:21.895Z,1.37
2018-03-22T17:12:49.282Z,1.10
2018-03-22T17:15:16.647Z,1.00
2018-03-22T17:17:44.444Z,0.77
2018-03-22T17:20:11.803Z,1.83
2018-03-22T17:22:40.317Z,0.80
2018-03-22T17:25:08.043Z,1.67
2018-03-22T17:27:42.679Z,1.33
2018-03-22T17:30:10.005Z,1.20
2018-03-22T17:32:44.202Z,0.67
2018-03-22T17:35:11.983Z,1.93
2018-03-22T17:37:39.393Z,2.37
2018-03-22T17:40:07.178Z,2.27
2018-03-22T17:42:34.549Z,2.13
2018-03-22T17:45:02.297Z,3.07
2018-03-22T17:47:29.689Z,3.60
2018-03-22T17:49:57.094Z,1.63
2018-03-22T17:52:24.531Z,2.30
2018-03-22T17:54:51.954Z,2.20
2018-03-22T17:57:19.449Z,1.30
2018-03-22T17:59:46.833Z,1.60
2018-03-22T18:02:14.216Z,1.30
2018-03-22T18:04:46.015Z,1.27
2018-03-22T18:07:13.406Z,0.90
2018-03-22T18:09:40.796Z,1.33
2018-03-22T18:12:08.167Z,1.23
2018-03-22T18:14:35.511Z,1.40
2018-03-22T18:17:03.744Z,1.17
2018-03-22T18:19:31.296Z,1.20
2018-03-22T18:21:58.677Z,1.13
2018-03-22T18:24:26.120Z,1.20
2018-03-22T18:26:53.475Z,1.20
2018-03-22T18:29:20.844Z,1.33
2018-03-22T18:31:48.619Z,1.07
2018-03-22T18:34:15.963Z,1.20
2018-03-22T18:36:44.111Z,1.07
2018-03-22T18:39:11.436Z,1.17
2018-03-22T18:41:38.887Z,11.77
2018-03-22T18:44:06.256Z,1.43
2018-03-22T18:46:34.608Z,4.70
2018-03-22T18:49:01.992Z,2.17
2018-03-22T18:51:31.400Z,1.90
2018-03-22T18:53:58.776Z,1.87
2018-03-22T18:56:26.140Z,2.17
2018-03-22T18:58:53.495Z,2.67
2018-03-22T19:01:20.848Z,2.50
2018-03-22T19:03:48.624Z,3.07
2018-03-22T19:06:17.355Z,1.63
2018-03-22T19:08:46.679Z,3.43
2018-03-22T19:11:14.041Z,6.07
2018-03-22T19:13:47.163Z,2.47
2018-03-22T19:16:14.538Z,2.17
2018-03-22T19:18:41.888Z,2.10
2018-03-22T19:21:09.440Z,1.73
2018-03-22T19:23:37.181Z,1.60
2018-03-22T19:26:04.538Z,1.47
2018-03-22T19:28:32.298Z,1.47
2018-03-22T19:30:59.667Z,1.30
2018-03-22T19:33:27.474Z,1.17
2018-03-22T19:35:57.523Z,1.23
2018-03-22T19:38:24.875Z,1.60
2018-03-22T19:40:52.253Z,2.33
2018-03-22T19:43:20.063Z,1.63
2018-03-22T19:45:47.492Z,1.53
2018-03-22T19:48:15.281Z,2.10
2018-03-22T19:50:42.646Z,1.77
2018-03-22T19:53:10.086Z,3.60
2018-03-22T19:55:37.427Z,2.07
2018-03-22T19:58:06.130Z,2.17
2018-03-22T20:03:30.353Z,2.10
2018-03-22T20:06:11.508Z,2.23
2018-03-22T20:08:38.928Z,2.00
2018-03-22T20:11:06.308Z,1.50
2018-03-22T20:13:34.056Z,2.20
2018-03-22T20:16:01.796Z,1.63
2018-03-22T20:21:29.219Z,1.73
2018-03-22T20:23:56.600Z,2.57
2018-03-22T20:26:23.985Z,1.97
2018-03-22T20:28:51.599Z,2.00
2018-03-22T20:31:19.013Z,1.33
2018-03-22T20:33:46.384Z,2.67
2018-03-22T20:36:13.748Z,1.97
2018-03-22T20:38:41.914Z,1.70
2018-03-22T20:41:14.295Z,1.93
2018-03-22T20:43:42.299Z,2.03
2018-03-22T20:46:09.807Z,2.30
2018-03-22T20:48:37.163Z,1.60
2018-03-22T20:51:05.580Z,1.70
2018-03-22T20:53:32.973Z,1.80
2018-03-22T20:56:00.658Z,1.70
2018-03-22T20:58:28.413Z,1.63
2018-03-22T21:00:55.788Z,1.30
2018-03-22T21:03:23.581Z,1.53
2018-03-22T21:05:51.005Z,1.73
2018-03-22T21:08:19.113Z,3.63
2018-03-22T21:10:46.519Z,2.30
2018-03-22T21:13:14.004Z,2.60
2018-03-22T21:18:44.171Z,2.90
2018-03-22T21:21:12.443Z,3.27
2018-03-22T21:23:39.840Z,2.20
2018-03-22T21:26:07.336Z,2.00
2018-03-22T21:28:35.088Z,2.10
2018-03-22T21:31:02.547Z,2.43
2018-03-22T21:33:30.835Z,1.77
2018-03-22T21:36:18.234Z,1.77
2018-03-22T21:38:45.612Z,1.50
2018-03-22T21:41:13.416Z,1.70
2018-03-22T21:43:52.394Z,1.80
2018-03-22T21:46:19.803Z,1.57
2018-03-22T21:48:49.191Z,1.63
2018-03-22T21:51:16.597Z,2.40
2018-03-22T21:53:43.934Z,1.33
2018-03-22T21:56:11.297Z,1.40
2018-03-22T21:58:39.703Z,1.53
2018-03-22T22:01:07.048Z,1.63
2018-03-22T22:03:34.455Z,2.13
2018-03-22T22:06:02.943Z,1.40
2018-03-22T22:08:30.481Z,1.70
2018-03-22T22:10:57.862Z,1.23
2018-03-22T22:13:25.547Z,1.67
2018-03-22T22:16:00.407Z,1.67
2018-03-22T22:18:28.242Z,1.73
2018-03-22T22:20:56.011Z,1.63
2018-03-22T22:26:15.974Z,2.20
2018-03-22T22:28:43.385Z,1.83
2018-03-22T22:31:10.762Z,1.57
2018-03-22T22:33:38.908Z,1.63
2018-03-22T22:36:06.287Z,1.63
2018-03-22T22:38:36.111Z,1.60
2018-03-22T22:41:03.932Z,2.00
2018-03-22T22:43:36.075Z,1.43
2018-03-22T22:46:03.618Z,2.00
2018-03-22T22:48:30.997Z,1.67
2018-03-22T22:50:58.376Z,1.50
2018-03-22T22:53:45.513Z,1.60
2018-03-22T22:56:12.911Z,1.57
2018-03-22T22:58:40.364Z,1.13
2018-03-22T23:01:07.716Z,2.03
2018-03-22T23:03:35.563Z,1.40
2018-03-22T23:06:07.192Z,1.10
2018-03-22T23:08:34.589Z,1.10
2018-03-22T23:11:07.073Z,1.10
2018-03-22T23:13:34.593Z,1.13
2018-03-22T23:16:05.338Z,0.83
2018-03-22T23:18:32.847Z,1.07
2018-03-22T23:21:00.275Z,1.13
2018-03-22T23:23:27.640Z,1.13
2018-03-22T23:25:55.422Z,0.90
2018-03-22T23:28:22.859Z,1.00
2018-03-22T23:30:50.196Z,1.20
2018-03-22T23:33:20.322Z,1.30
2018-03-22T23:35:53.640Z,1.30
2018-03-22T23:38:21.074Z,0.93
2018-03-22T23:43:42.111Z,0.70
2018-03-22T23:46:09.489Z,0.70
2018-03-22T23:48:36.846Z,1.10
2018-03-22T23:51:04.211Z,0.80
2018-03-22T23:53:31.566Z,0.90
2018-03-22T23:55:58.925Z,1.10
2018-03-22T23:58:26.363Z,1.00
